Terminal Aerodrome Forecast
Issued by NWS

Home | Current Version | Previous Version | Text Only | Print | Product List | Glossary On
Versions: 1 2 3 4 5 6 7 8 9 10 11 12 13 14 15 16 17 18 19 20 21 22 23 24 25 26 27 28 29 30 31
172
FTUS45 KGJT 260544
TAFMTJ
TAF
KMTJ 260544Z 2606/2706 12005KT P6SM SCT110 BKN200
     FM261500 VRB03KT P6SM SCT100 BKN200
     FM261900 33008KT P6SM SCT060 BKN150
     FM262000 30010KT P6SM VCSH SCT070 BKN150
     FM262200 27010G18KT P6SM VCSH BKN070
     FM270100 23010KT P6SM VCSH BKN080
     FM270300 15007KT P6SM VCSH BKN080=

USA.gov is the U.S. government's official web portal to all federal, state and local government web resources and services.